Lawrence, Ohio
Current Conditions -  °F | °C
As of 2:51 AM on Tuesday 21 Oct 2014 (Local Time) from KCAK Reporting Station
Haze Haze  
Wind Chill: 52°   Ceiling: 300
Heat Index: 52°   Visibility: 3mi
Dew Point: 49°   Wind: 5mph
Humidity: 89%   Direction: 270°W
Pressure: 29.84"   Gusts: NA
Location:  40.8849°N, 81.5861°W
Report Text: KCAK 210651Z 27004KT 3SM BR OVC003 11/09 A2984 RMK AO2 RAB08E40 SLP104 P0000 T01110094 $
Loading
Personal Weather Stations






























Interactive Weather Map
Tropical Storm Tracking
New forecast layout! Learn more

10-Day Weather Forecast

Advertisements
Track Severe Weather on mobile